sensor_id;sensor_type;location;lat;lon;timestamp;P1;durP1;ratioP1;P2;durP2;ratioP2
11677;SDS011;5895;41.950;24.372;2022-08-05T00:00:58;4.43;;;2.90;;
11677;SDS011;5895;41.950;24.372;2022-08-05T00:03:27;3.47;;;3.10;;
11677;SDS011;5895;41.950;24.372;2022-08-05T00:05:55;3.17;;;2.97;;
11677;SDS011;5895;41.950;24.372;2022-08-05T00:08:22;3.83;;;2.80;;
11677;SDS011;5895;41.950;24.372;2022-08-05T00:10:50;3.00;;;2.80;;
11677;SDS011;5895;41.950;24.372;2022-08-05T00:13:17;2.70;;;2.50;;
11677;SDS011;5895;41.950;24.372;2022-08-05T00:15:45;4.18;;;2.75;;
11677;SDS011;5895;41.950;24.372;2022-08-05T00:18:12;3.13;;;2.92;;
11677;SDS011;5895;41.950;24.372;2022-08-05T00:20:41;3.38;;;3.17;;
11677;SDS011;5895;41.950;24.372;2022-08-05T00:23:09;3.15;;;2.95;;
11677;SDS011;5895;41.950;24.372;2022-08-05T00:25:36;2.70;;;2.50;;
11677;SDS011;5895;41.950;24.372;2022-08-05T00:28:04;3.17;;;2.90;;
11677;SDS011;5895;41.950;24.372;2022-08-05T00:30:31;3.22;;;3.03;;
11677;SDS011;5895;41.950;24.372;2022-08-05T00:32:59;3.30;;;3.00;;
11677;SDS011;5895;41.950;24.372;2022-08-05T00:35:26;3.22;;;2.92;;
11677;SDS011;5895;41.950;24.372;2022-08-05T00:37:55;3.00;;;2.80;;
11677;SDS011;5895;41.950;24.372;2022-08-05T00:40:23;2.90;;;2.70;;
11677;SDS011;5895;41.950;24.372;2022-08-05T00:42:52;3.10;;;2.90;;
11677;SDS011;5895;41.950;24.372;2022-08-05T00:45:20;3.50;;;2.95;;
11677;SDS011;5895;41.950;24.372;2022-08-05T00:47:47;3.53;;;2.88;;
11677;SDS011;5895;41.950;24.372;2022-08-05T00:50:15;5.18;;;2.85;;
11677;SDS011;5895;41.950;24.372;2022-08-05T00:52:42;3.60;;;3.05;;
11677;SDS011;5895;41.950;24.372;2022-08-05T00:55:11;3.35;;;3.05;;
11677;SDS011;5895;41.950;24.372;2022-08-05T00:57:39;3.47;;;3.17;;
11677;SDS011;5895;41.950;24.372;2022-08-05T01:00:07;3.10;;;2.90;;
11677;SDS011;5895;41.950;24.372;2022-08-05T01:02:37;3.50;;;3.20;;
11677;SDS011;5895;41.950;24.372;2022-08-05T01:05:04;3.38;;;2.85;;
11677;SDS011;5895;41.950;24.372;2022-08-05T01:07:32;3.40;;;3.10;;
11677;SDS011;5895;41.950;24.372;2022-08-05T01:10:00;3.35;;;3.00;;
11677;SDS011;5895;41.950;24.372;2022-08-05T01:12:30;4.53;;;3.42;;
11677;SDS011;5895;41.950;24.372;2022-08-05T01:15:00;3.08;;;2.85;;
11677;SDS011;5895;41.950;24.372;2022-08-05T01:17:30;3.35;;;2.85;;
11677;SDS011;5895;41.950;24.372;2022-08-05T01:20:08;3.80;;;2.83;;
11677;SDS011;5895;41.950;24.372;2022-08-05T01:22:51;3.78;;;2.92;;
11677;SDS011;5895;41.950;24.372;2022-08-05T01:25:38;4.35;;;3.22;;
11677;SDS011;5895;41.950;24.372;2022-08-05T01:28:17;3.28;;;2.97;;
11677;SDS011;5895;41.950;24.372;2022-08-05T01:30:56;5.03;;;2.92;;
11677;SDS011;5895;41.950;24.372;2022-08-05T01:33:30;3.70;;;2.95;;
11677;SDS011;5895;41.950;24.372;2022-08-05T01:36:00;3.20;;;3.00;;
11677;SDS011;5895;41.950;24.372;2022-08-05T01:38:32;3.13;;;2.83;;
11677;SDS011;5895;41.950;24.372;2022-08-05T01:41:01;4.45;;;3.13;;
11677;SDS011;5895;41.950;24.372;2022-08-05T01:43:33;3.35;;;3.08;;
11677;SDS011;5895;41.950;24.372;2022-08-05T01:46:03;3.20;;;2.90;;
11677;SDS011;5895;41.950;24.372;2022-08-05T01:48:30;4.25;;;2.97;;
11677;SDS011;5895;41.950;24.372;2022-08-05T01:51:02;3.20;;;3.00;;
11677;SDS011;5895;41.950;24.372;2022-08-05T01:53:31;3.17;;;2.90;;
11677;SDS011;5895;41.950;24.372;2022-08-05T01:56:01;3.30;;;2.88;;
11677;SDS011;5895;41.950;24.372;2022-08-05T01:58:30;4.68;;;3.40;;
11677;SDS011;5895;41.950;24.372;2022-08-05T02:01:01;3.55;;;3.00;;
11677;SDS011;5895;41.950;24.372;2022-08-05T02:03:31;3.17;;;2.88;;
11677;SDS011;5895;41.950;24.372;2022-08-05T02:06:02;3.50;;;3.20;;
11677;SDS011;5895;41.950;24.372;2022-08-05T02:08:31;4.43;;;2.75;;
11677;SDS011;5895;41.950;24.372;2022-08-05T02:11:01;2.90;;;2.70;;
11677;SDS011;5895;41.950;24.372;2022-08-05T02:13:36;3.72;;;2.90;;
11677;SDS011;5895;41.950;24.372;2022-08-05T02:16:11;3.00;;;2.80;;
11677;SDS011;5895;41.950;24.372;2022-08-05T02:18:46;3.25;;;2.92;;
11677;SDS011;5895;41.950;24.372;2022-08-05T02:21:16;3.30;;;2.90;;
11677;SDS011;5895;41.950;24.372;2022-08-05T02:23:47;2.90;;;2.70;;
11677;SDS011;5895;41.950;24.372;2022-08-05T02:26:19;4.47;;;3.28;;
11677;SDS011;5895;41.950;24.372;2022-08-05T02:28:51;6.10;;;3.10;;
11677;SDS011;5895;41.950;24.372;2022-08-05T02:31:25;3.40;;;3.00;;
11677;SDS011;5895;41.950;24.372;2022-08-05T02:33:56;3.30;;;3.00;;
11677;SDS011;5895;41.950;24.372;2022-08-05T02:36:26;3.22;;;2.92;;
11677;SDS011;5895;41.950;24.372;2022-08-05T02:38:56;4.30;;;3.20;;
11677;SDS011;5895;41.950;24.372;2022-08-05T02:41:24;3.17;;;2.97;;
11677;SDS011;5895;41.950;24.372;2022-08-05T02:43:52;3.33;;;2.95;;
11677;SDS011;5895;41.950;24.372;2022-08-05T02:46:24;3.30;;;3.00;;
11677;SDS011;5895;41.950;24.372;2022-08-05T02:48:53;3.20;;;3.00;;
11677;SDS011;5895;41.950;24.372;2022-08-05T02:51:22;3.65;;;3.15;;
11677;SDS011;5895;41.950;24.372;2022-08-05T02:53:51;3.85;;;2.80;;
11677;SDS011;5895;41.950;24.372;2022-08-05T02:56:20;3.90;;;3.13;;
11677;SDS011;5895;41.950;24.372;2022-08-05T02:58:48;4.72;;;2.92;;
11677;SDS011;5895;41.950;24.372;2022-08-05T03:01:18;3.75;;;3.45;;
11677;SDS011;5895;41.950;24.372;2022-08-05T03:03:52;5.13;;;3.05;;
11677;SDS011;5895;41.950;24.372;2022-08-05T03:06:22;3.15;;;2.95;;
11677;SDS011;5895;41.950;24.372;2022-08-05T03:08:51;3.83;;;2.90;;
11677;SDS011;5895;41.950;24.372;2022-08-05T03:11:20;3.60;;;3.30;;
11677;SDS011;5895;41.950;24.372;2022-08-05T03:13:49;3.63;;;3.33;;
11677;SDS011;5895;41.950;24.372;2022-08-05T03:16:17;3.22;;;3.00;;
11677;SDS011;5895;41.950;24.372;2022-08-05T03:18:46;3.70;;;3.20;;
11677;SDS011;5895;41.950;24.372;2022-08-05T03:21:15;3.60;;;3.30;;
11677;SDS011;5895;41.950;24.372;2022-08-05T03:23:43;3.53;;;3.22;;
11677;SDS011;5895;41.950;24.372;2022-08-05T03:26:11;3.60;;;3.30;;
11677;SDS011;5895;41.950;24.372;2022-08-05T03:28:38;3.85;;;3.20;;
11677;SDS011;5895;41.950;24.372;2022-08-05T03:31:06;5.30;;;3.20;;
11677;SDS011;5895;41.950;24.372;2022-08-05T03:33:34;3.65;;;3.35;;
11677;SDS011;5895;41.950;24.372;2022-08-05T03:36:03;3.13;;;2.92;;
11677;SDS011;5895;41.950;24.372;2022-08-05T03:38:33;3.60;;;3.30;;
11677;SDS011;5895;41.950;24.372;2022-08-05T03:41:07;3.78;;;3.47;;
11677;SDS011;5895;41.950;24.372;2022-08-05T03:43:35;3.45;;;3.17;;
11677;SDS011;5895;41.950;24.372;2022-08-05T03:46:03;5.38;;;3.30;;
11677;SDS011;5895;41.950;24.372;2022-08-05T03:48:30;5.38;;;3.35;;
11677;SDS011;5895;41.950;24.372;2022-08-05T03:51:00;5.40;;;4.90;;
11677;SDS011;5895;41.950;24.372;2022-08-05T03:53:36;4.47;;;4.07;;
11677;SDS011;5895;41.950;24.372;2022-08-05T03:56:06;5.75;;;5.13;;
11677;SDS011;5895;41.950;24.372;2022-08-05T03:58:38;5.28;;;4.00;;
11677;SDS011;5895;41.950;24.372;2022-08-05T04:01:10;4.75;;;4.35;;
11677;SDS011;5895;41.950;24.372;2022-08-05T04:03:41;5.80;;;5.25;;
11677;SDS011;5895;41.950;24.372;2022-08-05T04:06:12;5.45;;;4.82;;
11677;SDS011;5895;41.950;24.372;2022-08-05T04:08:41;6.32;;;5.72;;
11677;SDS011;5895;41.950;24.372;2022-08-05T04:11:09;3.80;;;3.50;;
11677;SDS011;5895;41.950;24.372;2022-08-05T04:13:38;6.88;;;6.28;;
11677;SDS011;5895;41.950;24.372;2022-08-05T04:16:06;8.98;;;7.68;;
11677;SDS011;5895;41.950;24.372;2022-08-05T04:18:35;6.80;;;6.10;;
11677;SDS011;5895;41.950;24.372;2022-08-05T04:21:03;6.43;;;5.82;;
11677;SDS011;5895;41.950;24.372;2022-08-05T04:23:33;4.68;;;4.28;;
11677;SDS011;5895;41.950;24.372;2022-08-05T04:26:03;5.10;;;4.60;;
11677;SDS011;5895;41.950;24.372;2022-08-05T04:28:31;4.85;;;4.38;;
11677;SDS011;5895;41.950;24.372;2022-08-05T04:30:58;4.20;;;3.80;;
11677;SDS011;5895;41.950;24.372;2022-08-05T04:33:26;4.25;;;3.85;;
11677;SDS011;5895;41.950;24.372;2022-08-05T04:35:54;4.10;;;3.80;;
11677;SDS011;5895;41.950;24.372;2022-08-05T04:38:22;8.32;;;4.68;;
11677;SDS011;5895;41.950;24.372;2022-08-05T04:40:49;4.35;;;4.00;;
11677;SDS011;5895;41.950;24.372;2022-08-05T04:43:18;3.83;;;3.42;;
11677;SDS011;5895;41.950;24.372;2022-08-05T04:45:46;5.47;;;4.45;;
11677;SDS011;5895;41.950;24.372;2022-08-05T04:48:14;4.70;;;4.22;;
11677;SDS011;5895;41.950;24.372;2022-08-05T04:50:42;3.80;;;3.50;;
11677;SDS011;5895;41.950;24.372;2022-08-05T04:53:11;4.38;;;3.95;;
11677;SDS011;5895;41.950;24.372;2022-08-05T04:55:40;3.80;;;3.50;;
11677;SDS011;5895;41.950;24.372;2022-08-05T04:58:09;3.97;;;3.38;;
11677;SDS011;5895;41.950;24.372;2022-08-05T05:00:40;4.00;;;3.60;;
11677;SDS011;5895;41.950;24.372;2022-08-05T05:03:08;4.25;;;3.75;;
11677;SDS011;5895;41.950;24.372;2022-08-05T05:05:36;4.03;;;3.10;;
11677;SDS011;5895;41.950;24.372;2022-08-05T05:08:04;4.03;;;3.72;;
11677;SDS011;5895;41.950;24.372;2022-08-05T05:10:36;4.47;;;3.10;;
11677;SDS011;5895;41.950;24.372;2022-08-05T05:13:06;3.58;;;3.28;;
11677;SDS011;5895;41.950;24.372;2022-08-05T05:15:34;3.58;;;3.28;;
11677;SDS011;5895;41.950;24.372;2022-08-05T05:18:03;3.95;;;3.47;;
11677;SDS011;5895;41.950;24.372;2022-08-05T05:20:31;3.08;;;2.80;;
11677;SDS011;5895;41.950;24.372;2022-08-05T05:23:00;3.47;;;3.17;;
11677;SDS011;5895;41.950;24.372;2022-08-05T05:25:28;3.72;;;3.42;;
11677;SDS011;5895;41.950;24.372;2022-08-05T05:27:56;3.70;;;3.40;;
11677;SDS011;5895;41.950;24.372;2022-08-05T05:30:24;3.88;;;3.30;;
11677;SDS011;5895;41.950;24.372;2022-08-05T05:32:52;3.50;;;3.10;;
11677;SDS011;5895;41.950;24.372;2022-08-05T05:35:21;4.00;;;3.13;;
11677;SDS011;5895;41.950;24.372;2022-08-05T05:37:49;3.60;;;3.30;;
11677;SDS011;5895;41.950;24.372;2022-08-05T05:40:18;5.45;;;3.63;;
11677;SDS011;5895;41.950;24.372;2022-08-05T05:42:47;4.05;;;3.65;;
11677;SDS011;5895;41.950;24.372;2022-08-05T05:45:15;4.47;;;3.38;;
11677;SDS011;5895;41.950;24.372;2022-08-05T05:47:43;3.67;;;3.30;;
11677;SDS011;5895;41.950;24.372;2022-08-05T05:50:12;3.95;;;3.63;;
11677;SDS011;5895;41.950;24.372;2022-08-05T05:52:42;4.75;;;3.97;;
11677;SDS011;5895;41.950;24.372;2022-08-05T05:55:10;4.35;;;3.45;;
11677;SDS011;5895;41.950;24.372;2022-08-05T05:57:40;5.22;;;3.17;;
11677;SDS011;5895;41.950;24.372;2022-08-05T06:00:10;9.20;;;7.22;;
11677;SDS011;5895;41.950;24.372;2022-08-05T06:02:40;10.80;;;8.40;;
11677;SDS011;5895;41.950;24.372;2022-08-05T06:05:08;12.80;;;6.95;;
11677;SDS011;5895;41.950;24.372;2022-08-05T06:07:37;7.55;;;5.70;;
11677;SDS011;5895;41.950;24.372;2022-08-05T06:10:07;4.75;;;4.35;;
11677;SDS011;5895;41.950;24.372;2022-08-05T06:12:36;4.03;;;3.72;;
11677;SDS011;5895;41.950;24.372;2022-08-05T06:15:04;6.63;;;3.90;;
11677;SDS011;5895;41.950;24.372;2022-08-05T06:17:33;5.90;;;4.35;;
11677;SDS011;5895;41.950;24.372;2022-08-05T06:20:01;4.68;;;3.88;;
11677;SDS011;5895;41.950;24.372;2022-08-05T06:22:31;5.80;;;4.32;;
11677;SDS011;5895;41.950;24.372;2022-08-05T06:25:00;5.07;;;4.03;;
11677;SDS011;5895;41.950;24.372;2022-08-05T06:27:29;5.82;;;3.80;;
11677;SDS011;5895;41.950;24.372;2022-08-05T06:29:57;7.55;;;3.65;;
11677;SDS011;5895;41.950;24.372;2022-08-05T06:32:25;3.10;;;2.85;;
11677;SDS011;5895;41.950;24.372;2022-08-05T06:34:52;2.88;;;2.58;;
11677;SDS011;5895;41.950;24.372;2022-08-05T06:37:21;2.67;;;2.47;;
11677;SDS011;5895;41.950;24.372;2022-08-05T06:39:48;2.78;;;2.58;;
11677;SDS011;5895;41.950;24.372;2022-08-05T06:42:16;2.95;;;2.63;;
11677;SDS011;5895;41.950;24.372;2022-08-05T06:44:45;4.80;;;2.90;;
11677;SDS011;5895;41.950;24.372;2022-08-05T06:47:12;3.25;;;2.72;;
11677;SDS011;5895;41.950;24.372;2022-08-05T06:49:40;2.85;;;2.63;;
11677;SDS011;5895;41.950;24.372;2022-08-05T06:52:07;4.00;;;3.08;;
11677;SDS011;5895;41.950;24.372;2022-08-05T06:54:35;3.00;;;2.80;;
11677;SDS011;5895;41.950;24.372;2022-08-05T06:57:02;3.38;;;2.70;;
11677;SDS011;5895;41.950;24.372;2022-08-05T06:59:30;3.22;;;2.92;;
11677;SDS011;5895;41.950;24.372;2022-08-05T07:01:59;3.10;;;2.80;;
11677;SDS011;5895;41.950;24.372;2022-08-05T07:04:27;3.42;;;3.03;;
11677;SDS011;5895;41.950;24.372;2022-08-05T07:06:54;3.25;;;2.95;;
11677;SDS011;5895;41.950;24.372;2022-08-05T07:09:22;2.92;;;2.65;;
11677;SDS011;5895;41.950;24.372;2022-08-05T07:11:50;5.30;;;2.92;;
11677;SDS011;5895;41.950;24.372;2022-08-05T07:14:20;2.90;;;2.60;;
11677;SDS011;5895;41.950;24.372;2022-08-05T07:17:05;3.00;;;2.80;;
11677;SDS011;5895;41.950;24.372;2022-08-05T07:19:33;3.17;;;2.97;;
11677;SDS011;5895;41.950;24.372;2022-08-05T07:22:01;2.70;;;2.50;;
11677;SDS011;5895;41.950;24.372;2022-08-05T07:24:28;2.70;;;2.50;;
11677;SDS011;5895;41.950;24.372;2022-08-05T07:26:56;3.63;;;2.60;;
11677;SDS011;5895;41.950;24.372;2022-08-05T07:29:23;3.03;;;2.70;;
11677;SDS011;5895;41.950;24.372;2022-08-05T07:31:51;3.22;;;2.55;;
11677;SDS011;5895;41.950;24.372;2022-08-05T07:34:20;2.92;;;2.72;;
11677;SDS011;5895;41.950;24.372;2022-08-05T07:36:48;2.90;;;2.70;;
11677;SDS011;5895;41.950;24.372;2022-08-05T07:39:15;2.50;;;2.28;;
11677;SDS011;5895;41.950;24.372;2022-08-05T07:41:43;3.17;;;2.40;;
11677;SDS011;5895;41.950;24.372;2022-08-05T07:44:11;3.15;;;2.70;;
11677;SDS011;5895;41.950;24.372;2022-08-05T07:46:38;3.45;;;2.85;;
11677;SDS011;5895;41.950;24.372;2022-08-05T07:49:06;4.43;;;2.60;;
11677;SDS011;5895;41.950;24.372;2022-08-05T07:51:35;4.30;;;2.83;;
11677;SDS011;5895;41.950;24.372;2022-08-05T07:54:04;3.25;;;2.70;;
11677;SDS011;5895;41.950;24.372;2022-08-05T07:56:32;2.70;;;2.50;;
11677;SDS011;5895;41.950;24.372;2022-08-05T07:58:59;3.17;;;2.70;;
11677;SDS011;5895;41.950;24.372;2022-08-05T08:01:27;3.80;;;2.47;;
11677;SDS011;5895;41.950;24.372;2022-08-05T08:03:54;3.08;;;2.72;;
11677;SDS011;5895;41.950;24.372;2022-08-05T08:06:22;3.80;;;2.55;;
11677;SDS011;5895;41.950;24.372;2022-08-05T08:08:51;4.63;;;2.90;;
11677;SDS011;5895;41.950;24.372;2022-08-05T08:11:18;3.25;;;2.60;;
11677;SDS011;5895;41.950;24.372;2022-08-05T08:13:46;5.95;;;2.95;;
11677;SDS011;5895;41.950;24.372;2022-08-05T08:16:13;8.57;;;2.58;;
11677;SDS011;5895;41.950;24.372;2022-08-05T08:18:41;3.72;;;3.08;;
11677;SDS011;5895;41.950;24.372;2022-08-05T08:21:10;3.88;;;2.92;;
11677;SDS011;5895;41.950;24.372;2022-08-05T08:23:37;6.65;;;2.80;;
11677;SDS011;5895;41.950;24.372;2022-08-05T08:26:07;3.33;;;2.80;;
11677;SDS011;5895;41.950;24.372;2022-08-05T08:28:34;4.03;;;2.80;;
11677;SDS011;5895;41.950;24.372;2022-08-05T08:31:02;3.75;;;2.53;;
11677;SDS011;5895;41.950;24.372;2022-08-05T08:33:29;3.13;;;2.42;;
11677;SDS011;5895;41.950;24.372;2022-08-05T08:35:57;3.10;;;2.70;;
11677;SDS011;5895;41.950;24.372;2022-08-05T08:38:24;3.75;;;3.45;;
11677;SDS011;5895;41.950;24.372;2022-08-05T08:40:52;3.53;;;3.05;;
11677;SDS011;5895;41.950;24.372;2022-08-05T08:43:21;3.20;;;2.90;;
11677;SDS011;5895;41.950;24.372;2022-08-05T08:45:51;4.05;;;2.90;;
11677;SDS011;5895;41.950;24.372;2022-08-05T08:48:20;4.90;;;2.97;;
11677;SDS011;5895;41.950;24.372;2022-08-05T08:50:48;3.75;;;2.70;;
11677;SDS011;5895;41.950;24.372;2022-08-05T08:53:17;5.70;;;3.00;;
11677;SDS011;5895;41.950;24.372;2022-08-05T08:55:45;3.95;;;2.97;;
11677;SDS011;5895;41.950;24.372;2022-08-05T08:58:13;3.85;;;2.97;;
11677;SDS011;5895;41.950;24.372;2022-08-05T09:00:43;3.70;;;3.00;;
11677;SDS011;5895;41.950;24.372;2022-08-05T09:03:12;3.85;;;2.83;;
11677;SDS011;5895;41.950;24.372;2022-08-05T09:05:40;3.17;;;2.88;;
11677;SDS011;5895;41.950;24.372;2022-08-05T09:08:08;5.00;;;2.90;;
11677;SDS011;5895;41.950;24.372;2022-08-05T09:10:36;6.95;;;3.35;;
11677;SDS011;5895;41.950;24.372;2022-08-05T09:13:08;5.68;;;3.13;;
11677;SDS011;5895;41.950;24.372;2022-08-05T09:15:37;4.60;;;3.35;;
11677;SDS011;5895;41.950;24.372;2022-08-05T09:18:07;2.80;;;2.60;;
11677;SDS011;5895;41.950;24.372;2022-08-05T09:20:35;3.65;;;2.63;;
11677;SDS011;5895;41.950;24.372;2022-08-05T09:23:10;4.47;;;2.85;;
11677;SDS011;5895;41.950;24.372;2022-08-05T09:25:39;3.47;;;3.15;;
11677;SDS011;5895;41.950;24.372;2022-08-05T09:28:08;3.92;;;3.10;;
11677;SDS011;5895;41.950;24.372;2022-08-05T09:30:43;4.10;;;2.95;;
11677;SDS011;5895;41.950;24.372;2022-08-05T09:33:22;3.78;;;2.40;;
11677;SDS011;5895;41.950;24.372;2022-08-05T09:35:56;4.30;;;3.20;;
11677;SDS011;5895;41.950;24.372;2022-08-05T09:38:25;3.10;;;2.90;;
11677;SDS011;5895;41.950;24.372;2022-08-05T09:40:53;4.10;;;3.70;;
11677;SDS011;5895;41.950;24.372;2022-08-05T09:43:28;5.22;;;2.92;;
11677;SDS011;5895;41.950;24.372;2022-08-05T09:45:57;6.05;;;3.10;;
11677;SDS011;5895;41.950;24.372;2022-08-05T09:48:28;3.53;;;3.00;;
11677;SDS011;5895;41.950;24.372;2022-08-05T09:50:58;3.42;;;2.60;;
11677;SDS011;5895;41.950;24.372;2022-08-05T09:53:27;7.38;;;3.05;;
11677;SDS011;5895;41.950;24.372;2022-08-05T09:55:56;5.82;;;3.03;;
11677;SDS011;5895;41.950;24.372;2022-08-05T09:58:25;3.10;;;2.78;;
11677;SDS011;5895;41.950;24.372;2022-08-05T10:00:54;2.80;;;2.60;;
11677;SDS011;5895;41.950;24.372;2022-08-05T10:03:28;3.10;;;2.70;;
11677;SDS011;5895;41.950;24.372;2022-08-05T10:06:03;3.33;;;3.03;;
11677;SDS011;5895;41.950;24.372;2022-08-05T10:08:32;6.18;;;3.10;;
11677;SDS011;5895;41.950;24.372;2022-08-05T10:11:03;4.30;;;3.28;;
11677;SDS011;5895;41.950;24.372;2022-08-05T10:13:38;4.47;;;2.85;;
11677;SDS011;5895;41.950;24.372;2022-08-05T10:16:26;3.00;;;2.67;;
11677;SDS011;5895;41.950;24.372;2022-08-05T10:18:58;5.03;;;2.72;;
11677;SDS011;5895;41.950;24.372;2022-08-05T10:21:26;6.93;;;2.92;;
11677;SDS011;5895;41.950;24.372;2022-08-05T10:23:54;3.92;;;2.70;;
11677;SDS011;5895;41.950;24.372;2022-08-05T10:26:22;3.47;;;3.17;;
11677;SDS011;5895;41.950;24.372;2022-08-05T10:28:50;5.47;;;3.30;;
11677;SDS011;5895;41.950;24.372;2022-08-05T10:31:18;7.22;;;3.20;;
11677;SDS011;5895;41.950;24.372;2022-08-05T10:33:45;8.73;;;3.10;;
11677;SDS011;5895;41.950;24.372;2022-08-05T10:36:14;3.63;;;2.92;;
11677;SDS011;5895;41.950;24.372;2022-08-05T10:38:43;3.50;;;2.85;;
11677;SDS011;5895;41.950;24.372;2022-08-05T10:41:14;3.55;;;3.03;;
11677;SDS011;5895;41.950;24.372;2022-08-05T10:43:53;3.90;;;2.78;;
11677;SDS011;5895;41.950;24.372;2022-08-05T10:46:23;3.95;;;2.85;;
11677;SDS011;5895;41.950;24.372;2022-08-05T10:49:10;3.20;;;2.85;;
11677;SDS011;5895;41.950;24.372;2022-08-05T10:51:43;3.60;;;2.70;;
11677;SDS011;5895;41.950;24.372;2022-08-05T10:54:11;4.95;;;2.78;;
11677;SDS011;5895;41.950;24.372;2022-08-05T10:56:43;2.85;;;2.65;;
11677;SDS011;5895;41.950;24.372;2022-08-05T10:59:15;6.00;;;2.88;;
11677;SDS011;5895;41.950;24.372;2022-08-05T11:01:44;4.78;;;2.95;;
11677;SDS011;5895;41.950;24.372;2022-08-05T11:04:12;4.57;;;3.00;;
11677;SDS011;5895;41.950;24.372;2022-08-05T11:09:36;3.83;;;3.00;;
11677;SDS011;5895;41.950;24.372;2022-08-05T11:15:09;3.60;;;2.75;;
11677;SDS011;5895;41.950;24.372;2022-08-05T11:17:43;6.75;;;3.70;;
11677;SDS011;5895;41.950;24.372;2022-08-05T11:20:31;6.10;;;3.42;;
11677;SDS011;5895;41.950;24.372;2022-08-05T11:23:33;4.18;;;3.20;;
11677;SDS011;5895;41.950;24.372;2022-08-05T11:26:03;4.40;;;3.30;;
11677;SDS011;5895;41.950;24.372;2022-08-05T11:28:38;4.07;;;3.22;;
11677;SDS011;5895;41.950;24.372;2022-08-05T11:31:23;4.47;;;3.60;;
11677;SDS011;5895;41.950;24.372;2022-08-05T11:33:56;15.35;;;3.95;;
11677;SDS011;5895;41.950;24.372;2022-08-05T11:36:42;8.23;;;3.25;;
11677;SDS011;5895;41.950;24.372;2022-08-05T11:42:21;3.72;;;2.72;;
11677;SDS011;5895;41.950;24.372;2022-08-05T11:44:50;6.78;;;2.97;;
11677;SDS011;5895;41.950;24.372;2022-08-05T11:47:27;4.47;;;3.00;;
11677;SDS011;5895;41.950;24.372;2022-08-05T11:49:56;3.30;;;3.00;;
11677;SDS011;5895;41.950;24.372;2022-08-05T11:52:25;3.67;;;2.70;;
11677;SDS011;5895;41.950;24.372;2022-08-05T11:54:55;4.75;;;2.67;;
11677;SDS011;5895;41.950;24.372;2022-08-05T11:57:26;6.57;;;3.28;;
11677;SDS011;5895;41.950;24.372;2022-08-05T11:59:55;6.85;;;3.08;;
11677;SDS011;5895;41.950;24.372;2022-08-05T12:02:24;3.08;;;2.88;;
11677;SDS011;5895;41.950;24.372;2022-08-05T12:04:53;3.30;;;3.00;;
11677;SDS011;5895;41.950;24.372;2022-08-05T12:07:25;3.00;;;2.70;;
11677;SDS011;5895;41.950;24.372;2022-08-05T12:10:01;4.65;;;2.92;;
11677;SDS011;5895;41.950;24.372;2022-08-05T12:12:31;3.28;;;2.97;;
11677;SDS011;5895;41.950;24.372;2022-08-05T12:14:59;4.32;;;2.88;;
11677;SDS011;5895;41.950;24.372;2022-08-05T12:17:28;3.45;;;2.92;;
11677;SDS011;5895;41.950;24.372;2022-08-05T12:20:03;3.30;;;2.67;;
11677;SDS011;5895;41.950;24.372;2022-08-05T12:22:33;4.90;;;3.00;;
11677;SDS011;5895;41.950;24.372;2022-08-05T12:25:02;3.10;;;2.90;;
11677;SDS011;5895;41.950;24.372;2022-08-05T12:27:31;4.13;;;3.03;;
11677;SDS011;5895;41.950;24.372;2022-08-05T12:30:00;3.15;;;2.92;;
11677;SDS011;5895;41.950;24.372;2022-08-05T12:32:30;3.47;;;2.83;;
11677;SDS011;5895;41.950;24.372;2022-08-05T12:35:00;3.30;;;3.00;;
11677;SDS011;5895;41.950;24.372;2022-08-05T12:37:29;3.15;;;2.92;;
11677;SDS011;5895;41.950;24.372;2022-08-05T12:39:58;4.43;;;2.60;;
11677;SDS011;5895;41.950;24.372;2022-08-05T12:42:28;4.15;;;3.22;;
11677;SDS011;5895;41.950;24.372;2022-08-05T12:45:04;5.53;;;3.00;;
11677;SDS011;5895;41.950;24.372;2022-08-05T12:47:32;5.50;;;2.75;;
11677;SDS011;5895;41.950;24.372;2022-08-05T12:50:10;3.67;;;2.80;;
11677;SDS011;5895;41.950;24.372;2022-08-05T12:52:40;3.10;;;2.90;;
11677;SDS011;5895;41.950;24.372;2022-08-05T12:55:15;4.95;;;2.90;;
11677;SDS011;5895;41.950;24.372;2022-08-05T12:57:45;15.10;;;3.78;;
11677;SDS011;5895;41.950;24.372;2022-08-05T13:00:18;3.78;;;3.33;;
11677;SDS011;5895;41.950;24.372;2022-08-05T13:02:47;4.00;;;3.20;;
11677;SDS011;5895;41.950;24.372;2022-08-05T13:05:14;3.35;;;3.05;;
11677;SDS011;5895;41.950;24.372;2022-08-05T13:07:42;8.32;;;3.53;;
11677;SDS011;5895;41.950;24.372;2022-08-05T13:10:12;3.42;;;3.13;;
11677;SDS011;5895;41.950;24.372;2022-08-05T13:12:43;3.50;;;3.20;;
11677;SDS011;5895;41.950;24.372;2022-08-05T13:15:12;3.95;;;3.08;;
11677;SDS011;5895;41.950;24.372;2022-08-05T13:17:40;3.20;;;2.90;;
11677;SDS011;5895;41.950;24.372;2022-08-05T13:20:19;4.03;;;3.00;;
11677;SDS011;5895;41.950;24.372;2022-08-05T13:22:48;4.38;;;2.53;;
11677;SDS011;5895;41.950;24.372;2022-08-05T13:25:18;3.50;;;2.97;;
11677;SDS011;5895;41.950;24.372;2022-08-05T13:27:48;5.38;;;3.30;;
11677;SDS011;5895;41.950;24.372;2022-08-05T13:30:17;5.10;;;4.20;;
11677;SDS011;5895;41.950;24.372;2022-08-05T13:32:51;3.83;;;3.47;;
11677;SDS011;5895;41.950;24.372;2022-08-05T13:35:20;5.32;;;3.22;;
11677;SDS011;5895;41.950;24.372;2022-08-05T13:37:48;3.03;;;2.72;;
11677;SDS011;5895;41.950;24.372;2022-08-05T13:40:15;7.30;;;3.33;;
11677;SDS011;5895;41.950;24.372;2022-08-05T13:42:44;5.07;;;3.10;;
11677;SDS011;5895;41.950;24.372;2022-08-05T13:45:14;3.42;;;3.13;;
11677;SDS011;5895;41.950;24.372;2022-08-05T13:47:43;5.38;;;2.90;;
11677;SDS011;5895;41.950;24.372;2022-08-05T13:50:11;4.07;;;2.90;;
11677;SDS011;5895;41.950;24.372;2022-08-05T13:52:38;3.83;;;2.95;;
11677;SDS011;5895;41.950;24.372;2022-08-05T13:55:06;4.05;;;3.28;;
11677;SDS011;5895;41.950;24.372;2022-08-05T13:57:34;7.50;;;3.63;;
11677;SDS011;5895;41.950;24.372;2022-08-05T14:00:02;3.25;;;2.97;;
11677;SDS011;5895;41.950;24.372;2022-08-05T14:02:32;8.82;;;3.10;;
11677;SDS011;5895;41.950;24.372;2022-08-05T14:05:00;6.78;;;3.10;;
11677;SDS011;5895;41.950;24.372;2022-08-05T14:07:38;3.25;;;2.65;;
11677;SDS011;5895;41.950;24.372;2022-08-05T14:10:08;5.28;;;3.38;;
11677;SDS011;5895;41.950;24.372;2022-08-05T14:12:37;4.75;;;3.50;;
11677;SDS011;5895;41.950;24.372;2022-08-05T14:15:06;3.50;;;3.20;;
11677;SDS011;5895;41.950;24.372;2022-08-05T14:17:36;3.67;;;3.38;;
11677;SDS011;5895;41.950;24.372;2022-08-05T14:20:04;4.18;;;3.05;;
11677;SDS011;5895;41.950;24.372;2022-08-05T14:22:32;3.88;;;3.00;;
11677;SDS011;5895;41.950;24.372;2022-08-05T14:25:00;3.40;;;3.10;;
11677;SDS011;5895;41.950;24.372;2022-08-05T14:27:28;4.70;;;3.00;;
11677;SDS011;5895;41.950;24.372;2022-08-05T14:29:55;4.05;;;3.08;;
11677;SDS011;5895;41.950;24.372;2022-08-05T14:32:23;3.72;;;3.15;;
11677;SDS011;5895;41.950;24.372;2022-08-05T14:34:52;4.25;;;3.00;;
11677;SDS011;5895;41.950;24.372;2022-08-05T14:37:20;3.28;;;2.97;;
11677;SDS011;5895;41.950;24.372;2022-08-05T14:39:47;3.67;;;3.00;;
11677;SDS011;5895;41.950;24.372;2022-08-05T14:42:15;3.15;;;2.90;;
11677;SDS011;5895;41.950;24.372;2022-08-05T14:44:42;6.43;;;3.00;;
11677;SDS011;5895;41.950;24.372;2022-08-05T14:47:11;4.30;;;3.10;;
11677;SDS011;5895;41.950;24.372;2022-08-05T14:49:38;6.65;;;3.00;;
11677;SDS011;5895;41.950;24.372;2022-08-05T14:52:07;3.10;;;2.90;;
11677;SDS011;5895;41.950;24.372;2022-08-05T14:54:35;3.72;;;3.30;;
11677;SDS011;5895;41.950;24.372;2022-08-05T14:57:03;5.88;;;3.75;;
11677;SDS011;5895;41.950;24.372;2022-08-05T14:59:31;9.43;;;4.10;;
11677;SDS011;5895;41.950;24.372;2022-08-05T15:01:58;3.50;;;3.20;;
11677;SDS011;5895;41.950;24.372;2022-08-05T15:04:27;10.05;;;3.47;;
11677;SDS011;5895;41.950;24.372;2022-08-05T15:06:54;4.63;;;3.47;;
11677;SDS011;5895;41.950;24.372;2022-08-05T15:09:24;5.07;;;3.40;;
11677;SDS011;5895;41.950;24.372;2022-08-05T15:11:51;3.58;;;3.28;;